DAL1426 KLAX-KJFK
Flight info
| Callsign | DAL1426 |
|---|---|
| Flight time | N/A |
| Altitude | 33000 |
| Route | OSHNN1 BEALE J146 DICEE/N0462F350 J146 DVC KD51W OATHE KD54A MCI RBS BVT/N0458F370 JOEBU DORET Q29 JHW Q476 WLKES PUCKY1 |
| Aircraft | B739/M-SDE2E3FGHIRWXY/LB1 |
Departure
| Time | 2026-05-06 23:26 |
|---|---|
| Airport | Los Angeles International Airport (KLAX) |
Arrival
| Time | N/A |
|---|---|
| Airport | John F. Kennedy International Airport (KJFK) |
| Time | Latitude | Longitude | Altitude | Speed | Heading |
|---|---|---|---|---|---|
| 2026-05-06 22:44 | 33.94703 | -118.40782 | 125 ft | 0 kts | 173° |
| 2026-05-06 23:12 | 33.94718 | -118.40784 | 119 ft | 3 kts | 173° |
| 2026-05-06 23:13 | 33.94743 | -118.40784 | 123 ft | 4 kts | 199° |
| 2026-05-06 23:13 | 33.94762 | -118.40767 | 129 ft | 4 kts | 245° |
| 2026-05-06 23:13 | 33.94767 | -118.40748 | 121 ft | 1 kts | 263° |
| 2026-05-06 23:13 | 33.94768 | -118.40745 | 121 ft | 0 kts | 263° |
| 2026-05-06 23:16 | 33.94767 | -118.40750 | 121 ft | 3 kts | 263° |
| 2026-05-06 23:16 | 33.94762 | -118.40799 | 128 ft | 9 kts | 262° |
| 2026-05-06 23:16 | 33.94752 | -118.40897 | 125 ft | 15 kts | 266° |
| 2026-05-06 23:17 | 33.94740 | -118.41027 | 125 ft | 16 kts | 263° |
| 2026-05-06 23:17 | 33.94723 | -118.41163 | 125 ft | 16 kts | 255° |
| 2026-05-06 23:17 | 33.94691 | -118.41293 | 122 ft | 17 kts | 259° |
| 2026-05-06 23:17 | 33.94619 | -118.41370 | 120 ft | 17 kts | 180° |
| 2026-05-06 23:18 | 33.94499 | -118.41356 | 122 ft | 18 kts | 174° |
| 2026-05-06 23:18 | 33.94366 | -118.41337 | 123 ft | 20 kts | 173° |
| 2026-05-06 23:18 | 33.94222 | -118.41316 | 123 ft | 21 kts | 173° |
| 2026-05-06 23:18 | 33.94080 | -118.41293 | 122 ft | 20 kts | 173° |
| 2026-05-06 23:19 | 33.93940 | -118.41273 | 120 ft | 20 kts | 174° |
| 2026-05-06 23:19 | 33.93822 | -118.41258 | 123 ft | 16 kts | 173° |
| 2026-05-06 23:19 | 33.93759 | -118.41179 | 124 ft | 16 kts | 88° |
| 2026-05-06 23:19 | 33.93769 | -118.41045 | 123 ft | 17 kts | 81° |
| 2026-05-06 23:20 | 33.93786 | -118.40909 | 125 ft | 16 kts | 82° |
| 2026-05-06 23:20 | 33.93801 | -118.40777 | 123 ft | 16 kts | 85° |
| 2026-05-06 23:20 | 33.93813 | -118.40639 | 123 ft | 17 kts | 83° |
| 2026-05-06 23:20 | 33.93829 | -118.40494 | 124 ft | 18 kts | 83° |
| 2026-05-06 23:21 | 33.93844 | -118.40340 | 125 ft | 19 kts | 83° |
| 2026-05-06 23:21 | 33.93862 | -118.40179 | 125 ft | 20 kts | 82° |
| 2026-05-06 23:21 | 33.93879 | -118.40012 | 125 ft | 21 kts | 85° |
| 2026-05-06 23:21 | 33.93895 | -118.39836 | 121 ft | 22 kts | 83° |
| 2026-05-06 23:22 | 33.93913 | -118.39654 | 122 ft | 22 kts | 82° |
| 2026-05-06 23:22 | 33.93933 | -118.39465 | 125 ft | 23 kts | 83° |
| 2026-05-06 23:22 | 33.93953 | -118.39269 | 125 ft | 24 kts | 82° |
| 2026-05-06 23:22 | 33.93973 | -118.39074 | 125 ft | 23 kts | 83° |
| 2026-05-06 23:23 | 33.93985 | -118.38950 | 121 ft | 22 kts | 82° |
| 2026-05-06 23:23 | 33.94011 | -118.38710 | 125 ft | 22 kts | 82° |
| 2026-05-06 23:23 | 33.94025 | -118.38585 | 125 ft | 22 kts | 82° |
| 2026-05-06 23:23 | 33.94042 | -118.38401 | 123 ft | 22 kts | 82° |
| 2026-05-06 23:24 | 33.94061 | -118.38219 | 124 ft | 22 kts | 82° |
| 2026-05-06 23:24 | 33.94075 | -118.38075 | 124 ft | 15 kts | 84° |
| 2026-05-06 23:24 | 33.94044 | -118.38003 | 124 ft | 9 kts | 156° |
| 2026-05-06 23:24 | 33.93990 | -118.38023 | 122 ft | 8 kts | 243° |
| 2026-05-06 23:25 | 33.93979 | -118.38087 | 125 ft | 8 kts | 262° |
| 2026-05-06 23:25 | 33.93964 | -118.38240 | 122 ft | 46 kts | 263° |
| 2026-05-06 23:25 | 33.93896 | -118.38897 | 120 ft | 110 kts | 263° |
| 2026-05-06 23:25 | 33.93782 | -118.40021 | 160 ft | 155 kts | 263° |
| 2026-05-06 23:26 | 33.93637 | -118.41365 | 590 ft | 170 kts | 261° |
| 2026-05-06 23:26 | 33.93473 | -118.42852 | 1011 ft | 187 kts | 262° |
| 2026-05-06 23:26 | 33.93324 | -118.44416 | 1690 ft | 191 kts | 263° |
| 2026-05-06 23:26 | 33.93152 | -118.46086 | 1902 ft | 209 kts | 259° |
| 2026-05-06 23:27 | 33.92456 | -118.47677 | 2070 ft | 226 kts | 227° |
| 2026-05-06 23:27 | 33.91245 | -118.48915 | 2382 ft | 232 kts | 221° |
| 2026-05-06 23:27 | 33.90085 | -118.50325 | 2555 ft | 245 kts | 233° |
| 2026-05-06 23:27 | 33.88983 | -118.51974 | 2796 ft | 259 kts | 232° |
| 2026-05-06 23:28 | 33.87834 | -118.53649 | 3231 ft | 267 kts | 231° |
| 2026-05-06 23:28 | 33.86517 | -118.55298 | 3720 ft | 274 kts | 214° |
| 2026-05-06 23:28 | 33.84743 | -118.56021 | 4142 ft | 280 kts | 180° |
| 2026-05-06 23:28 | 33.82818 | -118.55705 | 4719 ft | 280 kts | 167° |
| 2026-05-06 23:29 | 33.80909 | -118.55171 | 5279 ft | 281 kts | 165° |
| 2026-05-06 23:29 | 33.79002 | -118.54621 | 5880 ft | 282 kts | 165° |
| 2026-05-06 23:29 | 33.77073 | -118.54079 | 6371 ft | 286 kts | 165° |
| 2026-05-06 23:29 | 33.75120 | -118.53543 | 6956 ft | 287 kts | 165° |
| 2026-05-06 23:30 | 33.73149 | -118.53008 | 7433 ft | 292 kts | 164° |
| 2026-05-06 23:30 | 33.71193 | -118.52374 | 8065 ft | 290 kts | 152° |
| 2026-05-06 23:30 | 33.69632 | -118.50920 | 8586 ft | 285 kts | 124° |
| 2026-05-06 23:30 | 33.68695 | -118.48852 | 9175 ft | 281 kts | 107° |
| 2026-05-06 23:31 | 33.68046 | -118.46646 | 9829 ft | 281 kts | 105° |
| 2026-05-06 23:31 | 33.67414 | -118.44405 | 10322 ft | 288 kts | 105° |
| 2026-05-06 23:31 | 33.66745 | -118.42054 | 10448 ft | 307 kts | 105° |
| 2026-05-06 23:31 | 33.66028 | -118.39592 | 10591 ft | 325 kts | 106° |
| 2026-05-06 23:32 | 33.65259 | -118.36987 | 10718 ft | 343 kts | 106° |
| 2026-05-06 23:32 | 33.64503 | -118.34217 | 10913 ft | 354 kts | 98° |
| 2026-05-06 23:32 | 33.64382 | -118.31277 | 11326 ft | 354 kts | 85° |
| 2026-05-06 23:32 | 33.64447 | -118.28308 | 11871 ft | 356 kts | 86° |
| 2026-05-06 23:33 | 33.64466 | -118.25324 | 12394 ft | 360 kts | 87° |
| 2026-05-06 23:33 | 33.64471 | -118.22308 | 12905 ft | 363 kts | 86° |
| 2026-05-06 23:33 | 33.64898 | -118.19350 | 13375 ft | 362 kts | 66° |
| 2026-05-06 23:33 | 33.66151 | -118.16743 | 13917 ft | 362 kts | 50° |
| 2026-05-06 23:34 | 33.67976 | -118.14671 | 14400 ft | 364 kts | 38° |
| 2026-05-06 23:34 | 33.70011 | -118.12845 | 14907 ft | 366 kts | 36° |
| 2026-05-06 23:34 | 33.72077 | -118.11043 | 15430 ft | 368 kts | 36° |
| 2026-05-06 23:34 | 33.74162 | -118.09222 | 15959 ft | 371 kts | 36° |
| 2026-05-06 23:35 | 33.76249 | -118.07383 | 16447 ft | 373 kts | 36° |
| 2026-05-06 23:35 | 33.78343 | -118.05522 | 16993 ft | 374 kts | 37° |
| 2026-05-06 23:35 | 33.80434 | -118.03652 | 17542 ft | 376 kts | 37° |
| 2026-05-06 23:35 | 33.82540 | -118.01761 | 18010 ft | 379 kts | 37° |
| 2026-05-06 23:36 | 33.84659 | -117.99854 | 18468 ft | 382 kts | 37° |
| 2026-05-06 23:36 | 33.86800 | -117.97928 | 18890 ft | 385 kts | 37° |
| 2026-05-06 23:36 | 33.88952 | -117.95991 | 19329 ft | 386 kts | 37° |
| 2026-05-06 23:36 | 33.91111 | -117.94045 | 19758 ft | 388 kts | 37° |
| 2026-05-06 23:37 | 33.93274 | -117.92074 | 20181 ft | 391 kts | 37° |
| 2026-05-06 23:37 | 33.95447 | -117.90087 | 20589 ft | 394 kts | 37° |
| 2026-05-06 23:37 | 33.97639 | -117.88079 | 21016 ft | 396 kts | 37° |
| 2026-05-06 23:37 | 33.99843 | -117.86061 | 21469 ft | 398 kts | 37° |
| 2026-05-06 23:38 | 34.02049 | -117.84042 | 21876 ft | 400 kts | 37° |
| 2026-05-06 23:38 | 34.04241 | -117.82035 | 22263 ft | 402 kts | 37° |
| 2026-05-06 23:38 | 34.06475 | -117.79987 | 22640 ft | 405 kts | 37° |
| 2026-05-06 23:38 | 34.08714 | -117.77913 | 23034 ft | 407 kts | 39° |
| 2026-05-06 23:39 | 34.10703 | -117.75460 | 23378 ft | 410 kts | 49° |
| 2026-05-06 23:39 | 34.12492 | -117.72759 | 23733 ft | 413 kts | 50° |
| 2026-05-06 23:39 | 34.14263 | -117.70027 | 24062 ft | 414 kts | 50° |
| 2026-05-06 23:39 | 34.16051 | -117.67285 | 24402 ft | 416 kts | 50° |
| 2026-05-06 23:40 | 34.17860 | -117.64546 | 24737 ft | 417 kts | 50° |
| 2026-05-06 23:40 | 34.19685 | -117.61810 | 25045 ft | 419 kts | 50° |
| 2026-05-06 23:40 | 34.21522 | -117.59077 | 25407 ft | 419 kts | 50° |
| 2026-05-06 23:40 | 34.23360 | -117.56338 | 25670 ft | 422 kts | 50° |
| 2026-05-06 23:41 | 34.25218 | -117.53573 | 25974 ft | 424 kts | 50° |
| 2026-05-06 23:41 | 34.27079 | -117.50800 | 26268 ft | 426 kts | 50° |
| 2026-05-06 23:41 | 34.28952 | -117.48009 | 26590 ft | 428 kts | 50° |
| 2026-05-06 23:41 | 34.30820 | -117.45221 | 27007 ft | 426 kts | 50° |
| 2026-05-06 23:42 | 34.32683 | -117.42436 | 27400 ft | 426 kts | 50° |
| 2026-05-06 23:42 | 34.34554 | -117.39641 | 27647 ft | 429 kts | 50° |
| 2026-05-06 23:42 | 34.36412 | -117.36862 | 27865 ft | 432 kts | 50° |
| 2026-05-06 23:42 | 34.38302 | -117.34032 | 28162 ft | 433 kts | 50° |
| 2026-05-06 23:43 | 34.40178 | -117.31219 | 28562 ft | 432 kts | 50° |
| 2026-05-06 23:43 | 34.42064 | -117.28390 | 29007 ft | 430 kts | 50° |
| 2026-05-06 23:43 | 34.43932 | -117.25584 | 29481 ft | 427 kts | 50° |
| 2026-05-06 23:43 | 34.45796 | -117.22785 | 30029 ft | 424 kts | 50° |
| 2026-05-06 23:44 | 34.47645 | -117.20004 | 30429 ft | 422 kts | 50° |
| 2026-05-06 23:44 | 34.49485 | -117.17235 | 30735 ft | 421 kts | 50° |
| 2026-05-06 23:44 | 34.51321 | -117.14471 | 31091 ft | 420 kts | 50° |
| 2026-05-06 23:44 | 34.53148 | -117.11718 | 31475 ft | 418 kts | 50° |
| 2026-05-06 23:45 | 34.54967 | -117.08986 | 31784 ft | 416 kts | 49° |
| 2026-05-06 23:45 | 34.56810 | -117.06282 | 32074 ft | 416 kts | 49° |
| 2026-05-06 23:45 | 34.58669 | -117.03586 | 32314 ft | 417 kts | 49° |
| 2026-05-06 23:45 | 34.60530 | -117.00895 | 32511 ft | 418 kts | 49° |
| 2026-05-06 23:46 | 34.62402 | -116.98181 | 32726 ft | 420 kts | 49° |
| 2026-05-06 23:46 | 34.64273 | -116.95462 | 32993 ft | 419 kts | 49° |
| 2026-05-06 23:46 | 34.66145 | -116.92734 | 32983 ft | 421 kts | 49° |
| 2026-05-06 23:47 | 34.69853 | -116.87316 | 33015 ft | 418 kts | 49° |
| 2026-05-06 23:47 | 34.73563 | -116.81883 | 33022 ft | 416 kts | 49° |
| 2026-05-06 23:48 | 34.77254 | -116.76470 | 33029 ft | 415 kts | 49° |
| 2026-05-06 23:48 | 34.80938 | -116.71061 | 33032 ft | 415 kts | 49° |
| 2026-05-06 23:49 | 34.84621 | -116.65645 | 33017 ft | 415 kts | 49° |
| 2026-05-06 23:49 | 34.88397 | -116.60323 | 33018 ft | 415 kts | 46° |
| 2026-05-06 23:50 | 34.92326 | -116.55150 | 33007 ft | 416 kts | 46° |
| 2026-05-06 23:50 | 34.98236 | -116.47335 | 32987 ft | 419 kts | 46° |
| 2026-05-06 23:51 | 35.02156 | -116.42093 | 32965 ft | 421 kts | 46° |
| 2026-05-06 23:51 | 35.06098 | -116.36800 | 32951 ft | 422 kts | 46° |
| 2026-05-06 23:52 | 35.10050 | -116.31483 | 32949 ft | 423 kts | 46° |
| 2026-05-06 23:52 | 35.14004 | -116.26157 | 32956 ft | 423 kts | 46° |
| 2026-05-06 23:53 | 35.17950 | -116.20832 | 32948 ft | 422 kts | 46° |
| 2026-05-06 23:53 | 35.21887 | -116.15513 | 32949 ft | 422 kts | 47° |
| 2026-05-06 23:54 | 35.25794 | -116.10226 | 32972 ft | 421 kts | 46° |
| 2026-05-06 23:54 | 35.29723 | -116.04900 | 32969 ft | 421 kts | 47° |
| 2026-05-06 23:55 | 35.33641 | -115.99580 | 32985 ft | 421 kts | 47° |
| 2026-05-06 23:55 | 35.37563 | -115.94249 | 33008 ft | 421 kts | 46° |
| 2026-05-06 23:56 | 35.41484 | -115.88908 | 32989 ft | 421 kts | 46° |
| 2026-05-06 23:56 | 35.45402 | -115.83565 | 33008 ft | 421 kts | 46° |
| 2026-05-06 23:57 | 35.49325 | -115.78205 | 33013 ft | 421 kts | 46° |
| 2026-05-06 23:57 | 35.53241 | -115.72846 | 33023 ft | 422 kts | 46° |
| 2026-05-06 23:58 | 35.57157 | -115.67479 | 33021 ft | 422 kts | 47° |
| 2026-05-06 23:58 | 35.61041 | -115.62147 | 33031 ft | 422 kts | 47° |
| 2026-05-06 23:59 | 35.64976 | -115.56736 | 33038 ft | 422 kts | 47° |
| 2026-05-06 23:59 | 35.68866 | -115.51381 | 33039 ft | 423 kts | 47° |
| 2026-05-07 00:00 | 35.72777 | -115.45985 | 33045 ft | 422 kts | 47° |
| 2026-05-07 00:00 | 35.76028 | -115.41488 | 33042 ft | 423 kts | 47° |
| 2026-05-07 00:01 | 35.80594 | -115.35162 | 33037 ft | 422 kts | 47° |
| 2026-05-07 00:01 | 35.84493 | -115.29750 | 33046 ft | 422 kts | 47° |
| 2026-05-07 00:02 | 35.88387 | -115.24337 | 33039 ft | 422 kts | 47° |
| 2026-05-07 00:02 | 35.92286 | -115.18909 | 33026 ft | 422 kts | 47° |
| 2026-05-07 00:03 | 35.96181 | -115.13477 | 33025 ft | 423 kts | 47° |
| 2026-05-07 00:03 | 36.00047 | -115.08078 | 33030 ft | 423 kts | 47° |
| 2026-05-07 00:04 | 36.03946 | -115.02623 | 33026 ft | 423 kts | 47° |
| 2026-05-07 00:04 | 36.07815 | -114.97201 | 32992 ft | 423 kts | 47° |
| 2026-05-07 00:05 | 36.11699 | -114.91747 | 32929 ft | 423 kts | 47° |
| 2026-05-07 00:05 | 36.15587 | -114.86282 | 32923 ft | 422 kts | 47° |
| 2026-05-07 00:06 | 36.18998 | -114.80407 | 32918 ft | 426 kts | 65° |
| 2026-05-07 00:06 | 36.21068 | -114.73522 | 32922 ft | 427 kts | 66° |
| 2026-05-07 00:07 | 36.23129 | -114.66613 | 32910 ft | 427 kts | 66° |
| 2026-05-07 00:07 | 36.25214 | -114.59724 | 32893 ft | 427 kts | 66° |
| 2026-05-07 00:08 | 36.27310 | -114.52838 | 32897 ft | 427 kts | 66° |
| 2026-05-07 00:08 | 36.29411 | -114.45934 | 32891 ft | 428 kts | 65° |
| 2026-05-07 00:09 | 36.31500 | -114.39052 | 32893 ft | 430 kts | 65° |
| 2026-05-07 00:09 | 36.33602 | -114.32110 | 32899 ft | 430 kts | 65° |
| 2026-05-07 00:10 | 36.35350 | -114.26322 | 32900 ft | 431 kts | 65° |
| 2026-05-07 00:10 | 36.37448 | -114.19359 | 32906 ft | 431 kts | 66° |
| 2026-05-07 00:11 | 36.39546 | -114.12377 | 32906 ft | 431 kts | 66° |
| 2026-05-07 00:11 | 36.41638 | -114.05400 | 32908 ft | 431 kts | 66° |
| 2026-05-07 00:12 | 36.43724 | -113.98423 | 32931 ft | 431 kts | 66° |
| 2026-05-07 00:12 | 36.45806 | -113.91444 | 32929 ft | 431 kts | 66° |
| 2026-05-07 00:13 | 36.47870 | -113.84509 | 32947 ft | 430 kts | 66° |
| 2026-05-07 00:13 | 36.49944 | -113.77522 | 32937 ft | 430 kts | 66° |
| 2026-05-07 00:14 | 36.52016 | -113.70527 | 32957 ft | 431 kts | 66° |
| 2026-05-07 00:14 | 36.54079 | -113.63538 | 32953 ft | 431 kts | 66° |
| 2026-05-07 00:15 | 36.56145 | -113.56526 | 32967 ft | 431 kts | 66° |
| 2026-05-07 00:15 | 36.58191 | -113.49568 | 32963 ft | 431 kts | 66° |
| 2026-05-07 00:16 | 36.60244 | -113.42561 | 32986 ft | 431 kts | 66° |
| 2026-05-07 00:16 | 36.62295 | -113.35549 | 32981 ft | 431 kts | 66° |
| 2026-05-07 00:17 | 36.64336 | -113.28524 | 32984 ft | 431 kts | 66° |
| 2026-05-07 00:17 | 36.66366 | -113.21490 | 32998 ft | 431 kts | 66° |
| 2026-05-07 00:18 | 36.68393 | -113.14449 | 33028 ft | 431 kts | 66° |
| 2026-05-07 00:18 | 36.70414 | -113.07413 | 33047 ft | 431 kts | 66° |
| 2026-05-07 00:19 | 36.72423 | -113.00405 | 33050 ft | 431 kts | 66° |
| 2026-05-07 00:19 | 36.74434 | -112.93370 | 33056 ft | 431 kts | 66° |
| 2026-05-07 00:20 | 36.76440 | -112.86333 | 33048 ft | 431 kts | 66° |
| 2026-05-07 00:20 | 36.78445 | -112.79283 | 33036 ft | 431 kts | 66° |
| 2026-05-07 00:21 | 36.80448 | -112.72222 | 33022 ft | 431 kts | 66° |
| 2026-05-07 00:21 | 36.82444 | -112.65168 | 32995 ft | 431 kts | 66° |
| 2026-05-07 00:22 | 36.84441 | -112.58088 | 32975 ft | 431 kts | 66° |
| 2026-05-07 00:22 | 36.86418 | -112.51065 | 32973 ft | 431 kts | 66° |
| 2026-05-07 00:23 | 36.88406 | -112.43985 | 32994 ft | 432 kts | 66° |
| 2026-05-07 00:23 | 36.90396 | -112.36899 | 32979 ft | 432 kts | 66° |
| 2026-05-07 00:24 | 36.92386 | -112.29810 | 32974 ft | 432 kts | 66° |
| 2026-05-07 00:24 | 36.94371 | -112.22722 | 32969 ft | 432 kts | 66° |
| 2026-05-07 00:25 | 36.96349 | -112.15639 | 32966 ft | 431 kts | 66° |
| 2026-05-07 00:25 | 36.98322 | -112.08558 | 32971 ft | 431 kts | 66° |
| 2026-05-07 00:26 | 37.00291 | -112.01470 | 32942 ft | 431 kts | 66° |
| 2026-05-07 00:26 | 37.02244 | -111.94422 | 32941 ft | 431 kts | 66° |
| 2026-05-07 00:27 | 37.04204 | -111.87327 | 32924 ft | 431 kts | 66° |
| 2026-05-07 00:27 | 37.06159 | -111.80233 | 32915 ft | 431 kts | 66° |
| 2026-05-07 00:28 | 37.08111 | -111.73132 | 32910 ft | 431 kts | 66° |
| 2026-05-07 00:28 | 37.10060 | -111.66020 | 32907 ft | 432 kts | 66° |
| 2026-05-07 00:29 | 37.12005 | -111.58903 | 32906 ft | 431 kts | 66° |
| 2026-05-07 00:30 | 37.15884 | -111.44658 | 32964 ft | 432 kts | 66° |
| 2026-05-07 00:30 | 37.17814 | -111.37540 | 32961 ft | 431 kts | 66° |
| 2026-05-07 00:31 | 37.19731 | -111.30451 | 32942 ft | 432 kts | 66° |
| 2026-05-07 00:31 | 37.21660 | -111.23299 | 32931 ft | 433 kts | 66° |
| 2026-05-07 00:32 | 37.23586 | -111.16135 | 32926 ft | 434 kts | 66° |
| 2026-05-07 00:32 | 37.25514 | -111.08945 | 32951 ft | 435 kts | 66° |
| 2026-05-07 00:33 | 37.27437 | -111.01749 | 32936 ft | 436 kts | 66° |
| 2026-05-07 00:33 | 37.29364 | -110.94521 | 32942 ft | 436 kts | 66° |
| 2026-05-07 00:34 | 37.31282 | -110.87302 | 32957 ft | 435 kts | 66° |
| 2026-05-07 00:34 | 37.33182 | -110.80132 | 32975 ft | 435 kts | 66° |
| 2026-05-07 00:35 | 37.35090 | -110.72917 | 32976 ft | 434 kts | 66° |
| 2026-05-07 00:35 | 37.36990 | -110.65707 | 32962 ft | 434 kts | 66° |
| 2026-05-07 00:36 | 37.38887 | -110.58489 | 32968 ft | 434 kts | 66° |
| 2026-05-07 00:36 | 37.40774 | -110.51290 | 32974 ft | 433 kts | 66° |
| 2026-05-07 00:37 | 37.42655 | -110.44092 | 33000 ft | 433 kts | 66° |
| 2026-05-07 00:37 | 37.44518 | -110.36942 | 32986 ft | 433 kts | 66° |
| 2026-05-07 00:38 | 37.46388 | -110.29748 | 33004 ft | 433 kts | 66° |
| 2026-05-07 00:38 | 37.48256 | -110.22542 | 33003 ft | 432 kts | 66° |
| 2026-05-07 00:39 | 37.50120 | -110.15328 | 33015 ft | 433 kts | 67° |
| 2026-05-07 00:39 | 37.51979 | -110.08115 | 33018 ft | 433 kts | 66° |
| 2026-05-07 00:40 | 37.53836 | -110.00888 | 33027 ft | 433 kts | 67° |
| 2026-05-07 00:40 | 37.55689 | -109.93653 | 33028 ft | 434 kts | 67° |
| 2026-05-07 00:41 | 37.57540 | -109.86409 | 33037 ft | 434 kts | 67° |
| 2026-05-07 00:41 | 37.59375 | -109.79206 | 33066 ft | 434 kts | 66° |
| 2026-05-07 00:42 | 37.61220 | -109.71940 | 33045 ft | 435 kts | 67° |
| 2026-05-07 00:42 | 37.63063 | -109.64667 | 33141 ft | 435 kts | 67° |
| 2026-05-07 00:43 | 37.64898 | -109.57396 | 33160 ft | 435 kts | 67° |
| 2026-05-07 00:43 | 37.66729 | -109.50126 | 33164 ft | 435 kts | 67° |
| 2026-05-07 00:44 | 37.68554 | -109.42857 | 33170 ft | 435 kts | 67° |
| 2026-05-07 00:44 | 37.70366 | -109.35617 | 33139 ft | 435 kts | 67° |
| 2026-05-07 00:45 | 37.72185 | -109.28331 | 33119 ft | 435 kts | 67° |
| 2026-05-07 00:45 | 37.74002 | -109.21036 | 33112 ft | 434 kts | 67° |
| 2026-05-07 00:46 | 37.75810 | -109.13742 | 33088 ft | 435 kts | 67° |
| 2026-05-07 00:46 | 37.77614 | -109.06444 | 33082 ft | 436 kts | 67° |
| 2026-05-07 00:47 | 37.79410 | -108.99166 | 33070 ft | 437 kts | 67° |
| 2026-05-07 00:47 | 37.81177 | -108.91787 | 33065 ft | 440 kts | 70° |
| 2026-05-07 00:48 | 37.82473 | -108.84190 | 33078 ft | 443 kts | 73° |